sensor_id;sensor_type;location;lat;lon;timestamp;P1;durP1;ratioP1;P2;durP2;ratioP2
40601;SDS011;26310;50.278;19.032;2023-03-01T00:01:22;41.63;;;20.50;;
40601;SDS011;26310;50.278;19.032;2023-03-01T00:06:27;45.37;;;22.27;;
40601;SDS011;26310;50.278;19.032;2023-03-01T00:11:32;43.43;;;18.23;;
40601;SDS011;26310;50.278;19.032;2023-03-01T00:16:38;36.37;;;18.93;;
40601;SDS011;26310;50.278;19.032;2023-03-01T00:21:43;41.23;;;20.97;;
40601;SDS011;26310;50.278;19.032;2023-03-01T00:26:47;35.43;;;20.27;;
40601;SDS011;26310;50.278;19.032;2023-03-01T05:31:04;33.90;;;13.53;;
40601;SDS011;26310;50.278;19.032;2023-03-01T05:36:11;24.10;;;14.53;;
40601;SDS011;26310;50.278;19.032;2023-03-01T05:41:14;32.70;;;14.80;;
40601;SDS011;26310;50.278;19.032;2023-03-01T05:46:18;26.27;;;14.87;;
40601;SDS011;26310;50.278;19.032;2023-03-01T05:51:21;25.63;;;15.40;;
40601;SDS011;26310;50.278;19.032;2023-03-01T05:56:24;27.73;;;15.30;;
40601;SDS011;26310;50.278;19.032;2023-03-01T06:01:27;38.33;;;16.60;;
40601;SDS011;26310;50.278;19.032;2023-03-01T06:06:37;32.43;;;15.73;;
40601;SDS011;26310;50.278;19.032;2023-03-01T06:11:40;32.20;;;18.00;;
40601;SDS011;26310;50.278;19.032;2023-03-01T06:16:43;34.23;;;19.73;;
40601;SDS011;26310;50.278;19.032;2023-03-01T06:21:46;33.13;;;16.27;;
40601;SDS011;26310;50.278;19.032;2023-03-01T06:26:48;40.07;;;18.70;;
40601;SDS011;26310;50.278;19.032;2023-03-01T06:31:51;35.17;;;16.17;;
40601;SDS011;26310;50.278;19.032;2023-03-01T06:36:54;44.90;;;19.67;;
40601;SDS011;26310;50.278;19.032;2023-03-01T06:41:57;38.83;;;19.00;;
40601;SDS011;26310;50.278;19.032;2023-03-01T06:47:00;44.63;;;18.97;;
40601;SDS011;26310;50.278;19.032;2023-03-01T06:52:03;29.70;;;17.77;;
40601;SDS011;26310;50.278;19.032;2023-03-01T06:57:06;31.93;;;18.40;;
40601;SDS011;26310;50.278;19.032;2023-03-01T07:02:12;35.37;;;17.77;;
40601;SDS011;26310;50.278;19.032;2023-03-01T07:07:15;32.97;;;18.57;;
40601;SDS011;26310;50.278;19.032;2023-03-01T07:12:19;33.97;;;17.73;;
40601;SDS011;26310;50.278;19.032;2023-03-01T07:17:22;33.93;;;16.97;;
40601;SDS011;26310;50.278;19.032;2023-03-01T07:22:25;21.23;;;14.80;;
40601;SDS011;26310;50.278;19.032;2023-03-01T07:27:28;25.80;;;18.10;;
40601;SDS011;26310;50.278;19.032;2023-03-01T07:32:31;31.03;;;16.00;;
40601;SDS011;26310;50.278;19.032;2023-03-01T07:37:34;39.70;;;16.73;;
40601;SDS011;26310;50.278;19.032;2023-03-01T07:42:37;36.20;;;16.83;;
40601;SDS011;26310;50.278;19.032;2023-03-01T07:47:40;31.87;;;17.53;;
40601;SDS011;26310;50.278;19.032;2023-03-01T07:52:44;29.60;;;15.93;;
40601;SDS011;26310;50.278;19.032;2023-03-01T07:57:48;24.23;;;12.83;;
40601;SDS011;26310;50.278;19.032;2023-03-01T08:02:51;22.93;;;12.67;;
40601;SDS011;26310;50.278;19.032;2023-03-01T08:07:54;16.50;;;11.07;;
40601;SDS011;26310;50.278;19.032;2023-03-01T08:12:56;25.10;;;14.63;;
40601;SDS011;26310;50.278;19.032;2023-03-01T08:17:59;20.43;;;11.17;;
40601;SDS011;26310;50.278;19.032;2023-03-01T08:23:02;20.87;;;12.60;;
40601;SDS011;26310;50.278;19.032;2023-03-01T08:28:05;27.07;;;14.33;;
40601;SDS011;26310;50.278;19.032;2023-03-01T08:33:08;20.33;;;12.50;;
40601;SDS011;26310;50.278;19.032;2023-03-01T08:38:11;19.77;;;10.77;;
40601;SDS011;26310;50.278;19.032;2023-03-01T08:43:14;22.40;;;11.97;;
40601;SDS011;26310;50.278;19.032;2023-03-01T08:48:17;11.70;;;7.57;;
40601;SDS011;26310;50.278;19.032;2023-03-01T08:53:20;21.03;;;9.43;;
40601;SDS011;26310;50.278;19.032;2023-03-01T08:58:23;18.87;;;9.83;;
40601;SDS011;26310;50.278;19.032;2023-03-01T09:03:26;16.80;;;12.13;;
40601;SDS011;26310;50.278;19.032;2023-03-01T09:08:29;21.40;;;11.57;;
40601;SDS011;26310;50.278;19.032;2023-03-01T09:13:32;17.97;;;10.33;;
40601;SDS011;26310;50.278;19.032;2023-03-01T09:18:36;17.07;;;10.83;;
40601;SDS011;26310;50.278;19.032;2023-03-01T09:23:43;19.63;;;9.60;;
40601;SDS011;26310;50.278;19.032;2023-03-01T09:28:47;16.00;;;10.20;;
40601;SDS011;26310;50.278;19.032;2023-03-01T09:33:52;15.83;;;8.63;;
40601;SDS011;26310;50.278;19.032;2023-03-01T09:38:57;12.73;;;7.87;;
40601;SDS011;26310;50.278;19.032;2023-03-01T09:49:33;10.87;;;5.40;;
40601;SDS011;26310;50.278;19.032;2023-03-01T09:54:38;8.37;;;5.63;;
40601;SDS011;26310;50.278;19.032;2023-03-01T10:05:25;8.50;;;5.80;;
40601;SDS011;26310;50.278;19.032;2023-03-01T10:10:39;10.97;;;6.33;;
40601;SDS011;26310;50.278;19.032;2023-03-01T10:15:47;7.50;;;5.20;;
40601;SDS011;26310;50.278;19.032;2023-03-01T10:21:13;14.57;;;6.63;;
40601;SDS011;26310;50.278;19.032;2023-03-01T10:36:49;11.53;;;6.00;;
40601;SDS011;26310;50.278;19.032;2023-03-01T10:47:00;9.40;;;5.93;;
40601;SDS011;26310;50.278;19.032;2023-03-01T10:52:11;9.57;;;5.97;;
40601;SDS011;26310;50.278;19.032;2023-03-01T10:57:28;18.23;;;6.97;;
40601;SDS011;26310;50.278;19.032;2023-03-01T11:02:32;12.90;;;7.43;;
40601;SDS011;26310;50.278;19.032;2023-03-01T11:07:54;8.67;;;5.53;;
40601;SDS011;26310;50.278;19.032;2023-03-01T11:13:06;10.43;;;6.83;;
40601;SDS011;26310;50.278;19.032;2023-03-01T11:18:21;13.43;;;6.50;;
40601;SDS011;26310;50.278;19.032;2023-03-01T11:23:37;9.77;;;6.27;;
40601;SDS011;26310;50.278;19.032;2023-03-01T11:28:42;13.23;;;7.60;;
40601;SDS011;26310;50.278;19.032;2023-03-01T11:34:19;13.73;;;7.00;;
40601;SDS011;26310;50.278;19.032;2023-03-01T11:44:43;12.17;;;6.83;;
40601;SDS011;26310;50.278;19.032;2023-03-01T11:49:53;9.90;;;6.07;;
40601;SDS011;26310;50.278;19.032;2023-03-01T11:55:21;9.47;;;6.17;;
40601;SDS011;26310;50.278;19.032;2023-03-01T12:16:40;11.93;;;7.23;;
40601;SDS011;26310;50.278;19.032;2023-03-01T12:22:28;12.30;;;6.87;;
40601;SDS011;26310;50.278;19.032;2023-03-01T12:27:36;11.10;;;7.13;;
40601;SDS011;26310;50.278;19.032;2023-03-01T12:33:15;7.17;;;5.47;;
40601;SDS011;26310;50.278;19.032;2023-03-01T12:43:52;9.03;;;5.80;;
40601;SDS011;26310;50.278;19.032;2023-03-01T12:49:13;9.50;;;5.57;;
40601;SDS011;26310;50.278;19.032;2023-03-01T12:54:31;8.20;;;5.00;;
40601;SDS011;26310;50.278;19.032;2023-03-01T13:04:45;5.00;;;4.10;;
40601;SDS011;26310;50.278;19.032;2023-03-01T13:15:36;10.40;;;4.77;;
40601;SDS011;26310;50.278;19.032;2023-03-01T13:31:11;13.80;;;5.20;;
40601;SDS011;26310;50.278;19.032;2023-03-01T13:46:45;8.30;;;5.03;;
40601;SDS011;26310;50.278;19.032;2023-03-01T13:51:48;10.33;;;6.37;;
40601;SDS011;26310;50.278;19.032;2023-03-01T13:56:52;8.57;;;4.77;;
40601;SDS011;26310;50.278;19.032;2023-03-01T14:01:57;5.63;;;3.93;;
40601;SDS011;26310;50.278;19.032;2023-03-01T14:07:18;7.87;;;4.90;;
40601;SDS011;26310;50.278;19.032;2023-03-01T14:22:47;14.03;;;6.37;;
40601;SDS011;26310;50.278;19.032;2023-03-01T14:27:56;8.33;;;5.07;;
40601;SDS011;26310;50.278;19.032;2023-03-01T14:33:17;10.10;;;5.23;;
40601;SDS011;26310;50.278;19.032;2023-03-01T14:38:23;8.60;;;5.23;;
40601;SDS011;26310;50.278;19.032;2023-03-01T14:43:33;11.77;;;5.30;;
40601;SDS011;26310;50.278;19.032;2023-03-01T14:48:36;9.87;;;5.10;;
40601;SDS011;26310;50.278;19.032;2023-03-01T14:53:39;13.40;;;5.97;;
40601;SDS011;26310;50.278;19.032;2023-03-01T14:58:52;8.33;;;5.40;;
40601;SDS011;26310;50.278;19.032;2023-03-01T15:03:56;9.67;;;5.30;;
40601;SDS011;26310;50.278;19.032;2023-03-01T15:08:59;10.20;;;5.40;;
40601;SDS011;26310;50.278;19.032;2023-03-01T15:14:03;11.47;;;6.97;;
40601;SDS011;26310;50.278;19.032;2023-03-01T15:19:28;9.73;;;6.37;;
40601;SDS011;26310;50.278;19.032;2023-03-01T15:24:31;11.30;;;6.10;;
40601;SDS011;26310;50.278;19.032;2023-03-01T15:29:38;11.87;;;6.10;;
40601;SDS011;26310;50.278;19.032;2023-03-01T15:34:42;8.97;;;6.00;;
40601;SDS011;26310;50.278;19.032;2023-03-01T15:39:55;10.43;;;5.40;;
40601;SDS011;26310;50.278;19.032;2023-03-01T15:45:08;8.70;;;5.07;;
40601;SDS011;26310;50.278;19.032;2023-03-01T15:55:32;12.60;;;5.33;;
40601;SDS011;26310;50.278;19.032;2023-03-01T16:00:35;9.73;;;5.43;;
40601;SDS011;26310;50.278;19.032;2023-03-01T16:05:38;7.10;;;5.17;;
40601;SDS011;26310;50.278;19.032;2023-03-01T16:10:41;10.13;;;5.67;;
40601;SDS011;26310;50.278;19.032;2023-03-01T16:15:47;10.13;;;5.17;;
40601;SDS011;26310;50.278;19.032;2023-03-01T16:20:50;8.20;;;5.13;;
40601;SDS011;26310;50.278;19.032;2023-03-01T16:25:58;12.27;;;5.67;;
40601;SDS011;26310;50.278;19.032;2023-03-01T16:31:02;14.27;;;7.73;;
40601;SDS011;26310;50.278;19.032;2023-03-01T16:36:07;10.60;;;6.83;;
40601;SDS011;26310;50.278;19.032;2023-03-01T16:41:13;16.50;;;7.80;;
40601;SDS011;26310;50.278;19.032;2023-03-01T16:46:18;15.90;;;8.40;;
40601;SDS011;26310;50.278;19.032;2023-03-01T16:51:23;12.27;;;7.17;;
40601;SDS011;26310;50.278;19.032;2023-03-01T16:56:26;13.70;;;8.13;;
40601;SDS011;26310;50.278;19.032;2023-03-01T17:01:29;16.47;;;7.47;;
40601;SDS011;26310;50.278;19.032;2023-03-01T17:06:39;13.83;;;7.77;;
40601;SDS011;26310;50.278;19.032;2023-03-01T17:11:42;16.73;;;8.03;;
40601;SDS011;26310;50.278;19.032;2023-03-01T17:16:45;16.23;;;8.20;;
40601;SDS011;26310;50.278;19.032;2023-03-01T17:21:48;11.93;;;8.73;;
40601;SDS011;26310;50.278;19.032;2023-03-01T17:26:51;15.73;;;7.27;;
40601;SDS011;26310;50.278;19.032;2023-03-01T17:31:55;13.90;;;7.03;;
40601;SDS011;26310;50.278;19.032;2023-03-01T17:36:58;15.43;;;7.37;;
40601;SDS011;26310;50.278;19.032;2023-03-01T17:42:01;16.83;;;8.43;;
40601;SDS011;26310;50.278;19.032;2023-03-01T17:47:06;17.30;;;8.53;;
40601;SDS011;26310;50.278;19.032;2023-03-01T17:52:09;18.17;;;7.90;;
40601;SDS011;26310;50.278;19.032;2023-03-01T17:57:11;11.53;;;7.30;;
40601;SDS011;26310;50.278;19.032;2023-03-01T18:02:15;15.03;;;8.83;;
40601;SDS011;26310;50.278;19.032;2023-03-01T18:07:20;30.07;;;14.87;;
40601;SDS011;26310;50.278;19.032;2023-03-01T18:12:23;26.00;;;11.23;;
40601;SDS011;26310;50.278;19.032;2023-03-01T18:17:26;28.20;;;14.47;;
40601;SDS011;26310;50.278;19.032;2023-03-01T18:22:29;23.30;;;12.93;;
40601;SDS011;26310;50.278;19.032;2023-03-01T18:27:33;24.63;;;12.57;;
40601;SDS011;26310;50.278;19.032;2023-03-01T18:32:37;23.33;;;12.30;;
40601;SDS011;26310;50.278;19.032;2023-03-01T18:37:40;12.80;;;7.93;;
40601;SDS011;26310;50.278;19.032;2023-03-01T18:42:43;24.27;;;9.27;;
40601;SDS011;26310;50.278;19.032;2023-03-01T18:47:46;16.13;;;9.67;;
40601;SDS011;26310;50.278;19.032;2023-03-01T18:52:50;17.37;;;8.77;;
40601;SDS011;26310;50.278;19.032;2023-03-01T18:57:53;9.67;;;7.60;;
40601;SDS011;26310;50.278;19.032;2023-03-01T19:02:57;17.10;;;10.03;;
40601;SDS011;26310;50.278;19.032;2023-03-01T19:08:01;18.60;;;9.50;;
40601;SDS011;26310;50.278;19.032;2023-03-01T19:13:04;24.87;;;11.83;;
40601;SDS011;26310;50.278;19.032;2023-03-01T19:18:07;17.17;;;10.10;;
40601;SDS011;26310;50.278;19.032;2023-03-01T19:23:10;19.90;;;11.37;;
40601;SDS011;26310;50.278;19.032;2023-03-01T19:28:14;18.33;;;11.83;;
40601;SDS011;26310;50.278;19.032;2023-03-01T19:33:17;27.17;;;13.77;;
40601;SDS011;26310;50.278;19.032;2023-03-01T19:38:20;28.50;;;15.83;;
40601;SDS011;26310;50.278;19.032;2023-03-01T19:43:23;20.03;;;12.30;;
40601;SDS011;26310;50.278;19.032;2023-03-01T19:48:26;19.43;;;13.07;;
40601;SDS011;26310;50.278;19.032;2023-03-01T19:53:30;22.90;;;11.77;;
40601;SDS011;26310;50.278;19.032;2023-03-01T19:58:33;21.03;;;13.33;;
40601;SDS011;26310;50.278;19.032;2023-03-01T20:03:37;19.13;;;10.87;;
40601;SDS011;26310;50.278;19.032;2023-03-01T20:08:40;22.30;;;12.37;;
40601;SDS011;26310;50.278;19.032;2023-03-01T20:13:43;21.40;;;13.30;;
40601;SDS011;26310;50.278;19.032;2023-03-01T20:18:46;24.37;;;13.00;;
40601;SDS011;26310;50.278;19.032;2023-03-01T20:23:49;31.77;;;15.47;;
40601;SDS011;26310;50.278;19.032;2023-03-01T20:28:53;32.70;;;16.33;;
40601;SDS011;26310;50.278;19.032;2023-03-01T20:33:58;29.50;;;16.63;;
40601;SDS011;26310;50.278;19.032;2023-03-01T20:39:01;31.70;;;17.43;;
40601;SDS011;26310;50.278;19.032;2023-03-01T20:44:04;28.73;;;18.27;;
40601;SDS011;26310;50.278;19.032;2023-03-01T20:49:07;29.23;;;18.03;;
40601;SDS011;26310;50.278;19.032;2023-03-01T20:54:11;37.30;;;19.40;;
40601;SDS011;26310;50.278;19.032;2023-03-01T20:59:15;40.10;;;17.53;;
40601;SDS011;26310;50.278;19.032;2023-03-01T21:04:18;34.87;;;15.83;;
40601;SDS011;26310;50.278;19.032;2023-03-01T21:09:21;29.90;;;16.70;;
40601;SDS011;26310;50.278;19.032;2023-03-01T21:14:23;29.97;;;16.17;;
40601;SDS011;26310;50.278;19.032;2023-03-01T21:19:27;35.07;;;17.10;;
40601;SDS011;26310;50.278;19.032;2023-03-01T21:24:29;32.07;;;18.20;;
40601;SDS011;26310;50.278;19.032;2023-03-01T21:29:33;34.13;;;16.87;;
40601;SDS011;26310;50.278;19.032;2023-03-01T21:34:43;24.20;;;14.20;;
40601;SDS011;26310;50.278;19.032;2023-03-01T21:39:46;32.93;;;18.10;;
40601;SDS011;26310;50.278;19.032;2023-03-01T21:44:49;36.33;;;17.00;;
40601;SDS011;26310;50.278;19.032;2023-03-01T21:49:52;36.07;;;18.27;;
40601;SDS011;26310;50.278;19.032;2023-03-01T21:54:55;42.33;;;20.20;;
40601;SDS011;26310;50.278;19.032;2023-03-01T22:00:02;36.20;;;19.27;;
40601;SDS011;26310;50.278;19.032;2023-03-01T22:05:06;38.43;;;19.17;;
40601;SDS011;26310;50.278;19.032;2023-03-01T22:10:09;41.37;;;18.13;;
40601;SDS011;26310;50.278;19.032;2023-03-01T22:15:12;34.10;;;19.60;;
40601;SDS011;26310;50.278;19.032;2023-03-01T22:20:15;32.80;;;18.67;;
40601;SDS011;26310;50.278;19.032;2023-03-01T22:25:18;40.50;;;19.20;;
40601;SDS011;26310;50.278;19.032;2023-03-01T22:30:21;44.77;;;19.73;;
40601;SDS011;26310;50.278;19.032;2023-03-01T22:35:24;39.67;;;19.17;;
40601;SDS011;26310;50.278;19.032;2023-03-01T22:40:27;39.93;;;21.53;;
40601;SDS011;26310;50.278;19.032;2023-03-01T22:45:30;36.63;;;17.80;;
40601;SDS011;26310;50.278;19.032;2023-03-01T22:50:33;44.70;;;21.30;;
40601;SDS011;26310;50.278;19.032;2023-03-01T22:55:36;46.20;;;20.17;;
40601;SDS011;26310;50.278;19.032;2023-03-01T23:00:39;39.83;;;20.97;;
40601;SDS011;26310;50.278;19.032;2023-03-01T23:05:42;32.23;;;18.27;;
40601;SDS011;26310;50.278;19.032;2023-03-01T23:10:45;50.00;;;20.67;;
40601;SDS011;26310;50.278;19.032;2023-03-01T23:15:52;53.70;;;21.53;;
40601;SDS011;26310;50.278;19.032;2023-03-01T23:20:56;32.53;;;19.20;;
40601;SDS011;26310;50.278;19.032;2023-03-01T23:25:59;35.80;;;18.63;;
40601;SDS011;26310;50.278;19.032;2023-03-01T23:31:03;51.00;;;18.90;;
40601;SDS011;26310;50.278;19.032;2023-03-01T23:36:12;39.67;;;19.07;;
40601;SDS011;26310;50.278;19.032;2023-03-01T23:41:20;36.77;;;20.57;;
40601;SDS011;26310;50.278;19.032;2023-03-01T23:46:26;41.17;;;20.63;;
40601;SDS011;26310;50.278;19.032;2023-03-01T23:51:31;40.47;;;22.83;;
40601;SDS011;26310;50.278;19.032;2023-03-01T23:56:37;40.33;;;19.67;;
